createdAt,value
2022-09-09T00:02:24.536Z,14.76
2022-09-09T00:04:58.020Z,14.77
2022-09-09T00:07:26.191Z,14.77
2022-09-09T00:09:52.350Z,14.79
2022-09-09T00:12:30.773Z,14.81
2022-09-09T00:15:07.772Z,14.84
2022-09-09T00:17:33.942Z,14.83
2022-09-09T00:20:13.458Z,14.83
2022-09-09T00:22:40.386Z,14.85
2022-09-09T00:25:11.622Z,14.84
2022-09-09T00:27:37.815Z,14.86
2022-09-09T00:30:12.887Z,14.86
2022-09-09T00:32:39.090Z,14.89
2022-09-09T00:35:14.827Z,14.90
2022-09-09T00:37:41.028Z,14.94
2022-09-09T00:40:14.320Z,14.97
2022-09-09T00:42:43.787Z,14.93
2022-09-09T00:45:15.805Z,14.93
2022-09-09T00:47:51.466Z,14.97
2022-09-09T00:50:32.952Z,14.99
2022-09-09T00:52:59.106Z,14.99
2022-09-09T00:55:25.326Z,14.99
2022-09-09T00:57:52.137Z,15.02
2022-09-09T01:00:24.929Z,15.05
2022-09-09T01:02:54.306Z,15.02
2022-09-09T01:05:40.634Z,14.96
2022-09-09T01:08:10.173Z,14.99
2022-09-09T01:10:48.557Z,15.02
2022-09-09T01:13:16.361Z,14.96
2022-09-09T01:15:42.557Z,14.99
2022-09-09T01:18:09.582Z,14.97
2022-09-09T01:20:47.598Z,14.94
2022-09-09T01:23:25.958Z,15.01
2022-09-09T01:26:10.970Z,15.04
2022-09-09T01:28:37.160Z,15.02
2022-09-09T01:31:04.389Z,15.05
2022-09-09T01:33:30.626Z,15.08
2022-09-09T01:35:58.453Z,15.07
2022-09-09T01:38:24.774Z,15.04
2022-09-09T01:40:51.028Z,15.02
2022-09-09T01:43:17.232Z,15.00
2022-09-09T01:45:43.476Z,14.99
2022-09-09T01:48:09.714Z,14.93
2022-09-09T01:50:35.928Z,14.95
2022-09-09T01:53:02.126Z,14.97
2022-09-09T01:55:37.904Z,14.99
2022-09-09T01:58:22.878Z,15.01
2022-09-09T02:00:52.326Z,15.01
2022-09-09T02:03:25.937Z,15.04
2022-09-09T02:06:10.975Z,15.03
2022-09-09T02:08:44.243Z,15.08
2022-09-09T02:11:16.449Z,15.04
2022-09-09T02:13:43.773Z,15.00
2022-09-09T02:16:14.347Z,14.98
2022-09-09T02:18:50.958Z,15.00
2022-09-09T02:21:17.384Z,15.00
2022-09-09T02:23:43.709Z,15.03
2022-09-09T02:26:10.217Z,15.08
2022-09-09T02:28:36.546Z,15.10
2022-09-09T02:31:02.852Z,15.06
2022-09-09T02:33:30.115Z,15.06
2022-09-09T02:35:56.327Z,15.04
2022-09-09T02:38:22.529Z,15.00
2022-09-09T02:40:48.754Z,14.97
2022-09-09T02:43:15.437Z,14.96
2022-09-09T02:45:58.731Z,14.96
2022-09-09T02:48:27.311Z,15.00
2022-09-09T02:50:56.545Z,15.02
2022-09-09T02:53:29.673Z,15.05
2022-09-09T02:55:57.424Z,15.08
2022-09-09T02:58:23.620Z,15.06
2022-09-09T03:00:50.262Z,15.06
2022-09-09T03:03:16.870Z,15.04
2022-09-09T03:05:44.192Z,14.99
2022-09-09T03:08:10.425Z,14.98
2022-09-09T03:10:36.622Z,14.95
2022-09-09T03:13:02.812Z,14.94
2022-09-09T03:15:29.008Z,14.93
2022-09-09T03:17:55.330Z,14.92
2022-09-09T03:20:21.519Z,14.92
2022-09-09T03:22:47.728Z,14.91
2022-09-09T03:25:13.928Z,14.92
2022-09-09T03:27:40.134Z,14.94
2022-09-09T03:30:06.525Z,14.92
2022-09-09T03:32:32.720Z,14.91
2022-09-09T03:34:58.921Z,14.92
2022-09-09T03:37:25.122Z,14.92
2022-09-09T03:39:51.377Z,14.93
2022-09-09T03:42:17.622Z,14.92
2022-09-09T03:44:43.817Z,14.98
2022-09-09T03:47:10.026Z,14.93
2022-09-09T03:49:36.211Z,14.87
2022-09-09T03:52:02.504Z,14.85
2022-09-09T03:54:28.701Z,14.83
2022-09-09T03:56:54.895Z,14.81
2022-09-09T03:59:21.093Z,14.82
2022-09-09T04:01:47.330Z,14.82
2022-09-09T04:04:13.797Z,14.86
2022-09-09T04:06:40.007Z,14.85
2022-09-09T04:09:06.206Z,14.85
2022-09-09T04:11:32.408Z,14.85
2022-09-09T04:13:58.622Z,14.85
2022-09-09T04:16:24.884Z,14.81
2022-09-09T04:18:51.085Z,14.82
2022-09-09T04:21:17.293Z,14.83
2022-09-09T04:23:43.489Z,14.82
2022-09-09T04:26:09.742Z,14.82
2022-09-09T04:28:36.219Z,14.81
2022-09-09T04:31:09.407Z,14.79
2022-09-09T04:33:39.953Z,14.79
2022-09-09T04:36:06.673Z,14.76
2022-09-09T04:38:32.918Z,14.75
2022-09-09T04:40:59.136Z,14.79
2022-09-09T04:43:25.352Z,14.75
2022-09-09T04:45:51.676Z,14.71
2022-09-09T04:48:18.549Z,14.73
2022-09-09T04:50:44.743Z,14.74
2022-09-09T04:53:10.949Z,14.73
2022-09-09T04:55:37.173Z,14.74
2022-09-09T04:58:06.757Z,14.77
2022-09-09T05:00:33.519Z,14.79
2022-09-09T05:03:02.694Z,14.76
2022-09-09T05:05:28.880Z,14.77
2022-09-09T05:07:55.077Z,14.77
2022-09-09T05:10:21.270Z,14.79
2022-09-09T05:12:53.859Z,14.77
2022-09-09T05:15:20.044Z,14.77
2022-09-09T05:17:46.236Z,14.76
2022-09-09T05:20:17.200Z,14.78
2022-09-09T05:22:43.722Z,14.83
2022-09-09T05:25:09.912Z,14.86
2022-09-09T05:27:36.117Z,14.87
2022-09-09T05:30:02.304Z,14.86
2022-09-09T05:32:30.186Z,14.82
2022-09-09T05:34:56.376Z,14.86
2022-09-09T05:37:22.577Z,14.87
2022-09-09T05:39:48.816Z,14.87
2022-09-09T05:42:15.061Z,14.87
2022-09-09T05:44:41.258Z,14.92
2022-09-09T05:47:07.498Z,14.91
2022-09-09T05:49:33.721Z,14.93
2022-09-09T05:51:59.930Z,14.94
2022-09-09T05:54:26.132Z,14.98
2022-09-09T05:56:52.342Z,15.04
2022-09-09T05:59:18.537Z,15.01
2022-09-09T06:01:44.806Z,15.02
2022-09-09T06:04:11.057Z,15.04
2022-09-09T06:06:37.682Z,15.01
2022-09-09T06:09:04.556Z,15.00
2022-09-09T06:11:31.200Z,15.01
2022-09-09T06:13:57.464Z,15.05
2022-09-09T06:16:24.331Z,15.06
2022-09-09T06:18:50.731Z,15.07
2022-09-09T06:21:23.748Z,15.11
2022-09-09T06:23:49.989Z,15.08
2022-09-09T06:26:17.051Z,15.10
2022-09-09T06:28:43.245Z,15.07
2022-09-09T06:31:10.175Z,15.06
2022-09-09T06:33:42.546Z,15.08
2022-09-09T06:36:11.349Z,15.11
2022-09-09T06:38:37.701Z,15.11
2022-09-09T06:41:03.973Z,15.10
2022-09-09T06:43:30.170Z,15.06
2022-09-09T06:46:04.108Z,15.04
2022-09-09T06:48:30.458Z,15.01
2022-09-09T06:51:02.915Z,15.09
2022-09-09T06:53:30.818Z,15.17
2022-09-09T06:55:57.162Z,15.22
2022-09-09T06:58:23.364Z,15.33
2022-09-09T07:00:49.577Z,15.38
2022-09-09T07:03:15.838Z,15.48
2022-09-09T07:05:42.024Z,15.75
2022-09-09T07:08:08.219Z,15.98
2022-09-09T07:10:34.423Z,16.21
2022-09-09T07:13:00.641Z,16.13
2022-09-09T07:15:26.858Z,15.98
2022-09-09T07:17:53.060Z,15.82
2022-09-09T07:20:19.249Z,15.85
2022-09-09T07:22:45.445Z,15.74
2022-09-09T07:25:11.641Z,15.96
2022-09-09T07:27:37.853Z,16.58
2022-09-09T07:30:04.201Z,16.72
2022-09-09T07:32:30.396Z,17.14
2022-09-09T07:34:56.624Z,16.92
2022-09-09T07:37:22.831Z,17.43
2022-09-09T07:39:49.106Z,18.06
2022-09-09T07:42:15.371Z,17.54
2022-09-09T07:44:41.569Z,16.96
2022-09-09T07:47:07.770Z,17.00
2022-09-09T07:49:33.954Z,16.88
2022-09-09T07:52:00.234Z,16.87
2022-09-09T07:54:26.497Z,16.89
2022-09-09T07:56:52.708Z,16.96
2022-09-09T07:59:18.982Z,17.09
2022-09-09T08:01:45.927Z,17.28
2022-09-09T08:04:12.928Z,17.87
2022-09-09T08:06:39.938Z,17.85
2022-09-09T08:09:06.361Z,18.12
2022-09-09T08:11:38.055Z,17.83
2022-09-09T08:14:05.158Z,18.08
2022-09-09T08:16:32.199Z,18.93
2022-09-09T08:18:58.470Z,19.14
2022-09-09T08:21:25.911Z,19.06
2022-09-09T08:23:55.881Z,19.43
2022-09-09T08:26:28.114Z,19.92
2022-09-09T08:28:54.773Z,19.34
2022-09-09T08:31:21.897Z,19.06
2022-09-09T08:33:48.203Z,18.79
2022-09-09T08:36:16.468Z,18.38
2022-09-09T08:38:42.990Z,17.93
2022-09-09T08:41:09.168Z,17.72
2022-09-09T08:43:35.398Z,17.46
2022-09-09T08:46:10.427Z,17.55
2022-09-09T08:48:41.988Z,17.70
2022-09-09T08:51:08.176Z,17.41
2022-09-09T08:53:38.142Z,17.33
2022-09-09T08:56:07.877Z,17.53
2022-09-09T08:58:34.485Z,18.50
2022-09-09T09:01:03.234Z,18.79
2022-09-09T09:03:49.682Z,18.55
2022-09-09T09:06:21.876Z,17.94
2022-09-09T09:08:49.817Z,18.24
2022-09-09T09:11:16.001Z,18.43
2022-09-09T09:14:02.439Z,17.96
2022-09-09T09:16:31.593Z,18.10
2022-09-09T09:18:57.932Z,18.45
2022-09-09T09:21:29.932Z,18.82
2022-09-09T09:23:59.424Z,18.67
2022-09-09T09:26:26.660Z,18.48
2022-09-09T09:28:53.893Z,18.25
2022-09-09T09:31:20.118Z,18.42
2022-09-09T09:33:53.201Z,18.27
2022-09-09T09:36:19.692Z,18.35
2022-09-09T09:41:42.521Z,18.23
2022-09-09T09:44:24.029Z,18.41
2022-09-09T09:46:50.273Z,18.61
2022-09-09T09:49:16.482Z,18.59
2022-09-09T09:51:42.875Z,19.15
2022-09-09T09:54:15.114Z,19.02
2022-09-09T09:56:41.335Z,19.40
2022-09-09T09:59:29.619Z,19.36
2022-09-09T10:02:14.618Z,20.42
2022-09-09T10:04:40.856Z,20.92
2022-09-09T10:07:14.186Z,20.80
2022-09-09T10:09:40.954Z,20.96
2022-09-09T10:12:10.201Z,21.12
2022-09-09T10:14:42.579Z,21.55
2022-09-09T10:17:17.955Z,21.35
2022-09-09T10:19:52.063Z,20.69
2022-09-09T10:22:24.766Z,20.42
2022-09-09T10:25:03.200Z,20.57
2022-09-09T10:27:29.356Z,21.40
2022-09-09T10:29:58.522Z,21.93
2022-09-09T10:32:37.906Z,21.69
2022-09-09T10:35:10.056Z,21.59
2022-09-09T10:37:54.727Z,21.62
2022-09-09T10:40:32.992Z,21.48
2022-09-09T10:43:05.307Z,21.20
2022-09-09T10:45:34.471Z,20.84
2022-09-09T10:48:18.444Z,20.88
2022-09-09T10:51:07.173Z,20.92
2022-09-09T10:53:37.628Z,21.17
2022-09-09T10:56:08.088Z,20.93
2022-09-09T10:58:36.928Z,20.94
2022-09-09T11:01:04.975Z,21.59
2022-09-09T11:03:31.262Z,21.70
2022-09-09T11:06:01.417Z,21.29
2022-09-09T11:08:27.993Z,21.38
2022-09-09T11:11:03.955Z,21.00
2022-09-09T11:13:47.854Z,21.01
2022-09-09T11:16:20.362Z,20.75
2022-09-09T11:18:46.623Z,20.59
2022-09-09T11:21:24.270Z,20.52
2022-09-09T11:23:51.854Z,20.40
2022-09-09T11:26:26.421Z,20.41
2022-09-09T11:28:55.770Z,20.53
2022-09-09T11:31:21.933Z,20.67
2022-09-09T11:33:51.441Z,21.08
2022-09-09T11:36:25.094Z,21.80
2022-09-09T11:38:51.679Z,22.20
2022-09-09T11:41:21.554Z,22.52
2022-09-09T11:43:48.781Z,22.26
2022-09-09T11:46:15.773Z,21.61
2022-09-09T11:48:42.666Z,21.41
2022-09-09T11:51:14.644Z,21.14
2022-09-09T11:53:50.057Z,20.80
2022-09-09T11:56:24.509Z,20.80
2022-09-09T11:58:58.023Z,21.55
2022-09-09T12:01:30.279Z,21.45
2022-09-09T12:04:06.695Z,21.85
2022-09-09T12:06:33.197Z,21.54
2022-09-09T12:09:05.530Z,21.18
2022-09-09T12:11:31.740Z,20.78
2022-09-09T12:14:00.305Z,20.76
2022-09-09T12:16:30.384Z,20.65
2022-09-09T12:19:03.511Z,20.77
2022-09-09T12:21:29.732Z,21.01
2022-09-09T12:23:56.318Z,21.21
2022-09-09T12:26:34.795Z,21.60
2022-09-09T12:29:15.979Z,21.71
2022-09-09T12:32:00.526Z,21.70
2022-09-09T12:34:34.838Z,21.87
2022-09-09T12:37:09.898Z,21.83
2022-09-09T12:39:40.480Z,22.20
2022-09-09T12:42:15.171Z,22.08
2022-09-09T12:44:41.367Z,22.56
2022-09-09T12:47:07.572Z,22.15
2022-09-09T12:49:35.139Z,22.35
2022-09-09T12:52:20.351Z,22.08
2022-09-09T12:54:46.675Z,21.63
2022-09-09T12:57:12.973Z,21.26
2022-09-09T12:59:39.904Z,21.28
2022-09-09T13:02:15.330Z,21.37
2022-09-09T13:04:41.566Z,21.36
2022-09-09T13:07:08.127Z,21.42
2022-09-09T13:09:34.328Z,21.29
2022-09-09T13:12:00.541Z,21.09
2022-09-09T13:14:29.407Z,20.98
2022-09-09T13:16:56.618Z,21.28
2022-09-09T13:19:22.828Z,21.36
2022-09-09T13:21:49.027Z,21.46
2022-09-09T13:24:34.100Z,21.40
2022-09-09T13:27:04.276Z,21.56
2022-09-09T13:29:31.068Z,21.69
2022-09-09T13:32:06.787Z,21.50
2022-09-09T13:34:33.705Z,21.56
2022-09-09T13:37:00.590Z,21.49
2022-09-09T13:39:26.801Z,21.38
2022-09-09T13:41:53.007Z,21.29
2022-09-09T13:44:26.410Z,21.15
2022-09-09T13:47:11.531Z,21.39
2022-09-09T13:49:37.731Z,21.36
2022-09-09T13:52:10.301Z,21.28
2022-09-09T13:54:38.218Z,21.28
2022-09-09T13:57:04.453Z,21.45
2022-09-09T13:59:53.965Z,21.49
2022-09-09T14:02:16.924Z,21.50
2022-09-09T14:04:43.351Z,21.70
2022-09-09T14:07:10.364Z,21.67
2022-09-09T14:09:36.573Z,21.70
2022-09-09T14:12:02.782Z,21.42
2022-09-09T14:14:28.986Z,21.06
2022-09-09T14:16:55.183Z,20.81
2022-09-09T14:19:21.398Z,20.75
2022-09-09T14:21:47.590Z,20.77
2022-09-09T14:24:13.785Z,20.81
2022-09-09T14:26:39.991Z,20.69
2022-09-09T14:29:06.196Z,20.42
2022-09-09T14:31:32.405Z,20.31
2022-09-09T14:33:58.601Z,20.20
2022-09-09T14:36:24.807Z,20.33
2022-09-09T14:38:51.070Z,20.50
2022-09-09T14:41:18.107Z,20.37
2022-09-09T14:43:44.543Z,20.38
2022-09-09T14:46:14.466Z,20.40
2022-09-09T14:48:40.762Z,20.34
2022-09-09T14:51:10.933Z,20.30
2022-09-09T14:53:37.323Z,20.17
2022-09-09T14:56:04.429Z,20.09
2022-09-09T14:58:33.449Z,19.99
2022-09-09T15:01:03.781Z,19.90
2022-09-09T15:03:30.086Z,19.78
2022-09-09T15:05:56.308Z,19.80
2022-09-09T15:08:22.587Z,19.65
2022-09-09T15:10:48.795Z,19.53
2022-09-09T15:13:15.755Z,19.50
2022-09-09T15:15:42.007Z,19.46
2022-09-09T15:18:08.280Z,19.36
2022-09-09T15:20:39.589Z,19.01
2022-09-09T15:23:06.423Z,18.87
2022-09-09T15:25:32.623Z,18.71
2022-09-09T15:27:58.840Z,18.69
2022-09-09T15:30:25.043Z,18.62
2022-09-09T15:32:51.326Z,18.62
2022-09-09T15:35:17.531Z,18.70
2022-09-09T15:37:43.743Z,18.72
2022-09-09T15:40:10.172Z,18.77
2022-09-09T15:42:36.438Z,18.75
2022-09-09T15:45:02.636Z,18.69
2022-09-09T15:47:28.852Z,18.62
2022-09-09T15:49:55.050Z,18.47
2022-09-09T15:52:21.272Z,18.42
2022-09-09T15:54:47.468Z,18.40
2022-09-09T15:57:13.771Z,18.38
2022-09-09T15:59:40.003Z,18.40
2022-09-09T16:02:06.332Z,18.37
2022-09-09T16:04:32.693Z,18.40
2022-09-09T16:06:59.825Z,18.27
2022-09-09T16:09:26.115Z,18.26
2022-09-09T16:11:52.317Z,17.82
2022-09-09T16:14:18.527Z,17.76
2022-09-09T16:16:44.720Z,17.74
2022-09-09T16:19:11.765Z,17.51
2022-09-09T16:21:38.894Z,17.29
2022-09-09T16:24:05.302Z,17.22
2022-09-09T16:26:32.173Z,16.86
2022-09-09T16:28:58.486Z,16.46
2022-09-09T16:31:24.836Z,16.30
2022-09-09T16:33:51.158Z,16.09
2022-09-09T16:36:18.068Z,16.30
2022-09-09T16:38:44.354Z,16.39
2022-09-09T16:41:10.777Z,16.45
2022-09-09T16:43:37.270Z,16.52
2022-09-09T16:46:04.070Z,16.20
2022-09-09T16:48:33.395Z,16.27
2022-09-09T16:51:03.645Z,16.17
2022-09-09T16:53:29.855Z,16.35
2022-09-09T16:55:58.429Z,16.27
2022-09-09T16:58:24.686Z,16.26
2022-09-09T17:00:50.899Z,16.47
2022-09-09T17:03:17.116Z,16.57
2022-09-09T17:05:43.302Z,16.73
2022-09-09T17:08:09.502Z,16.15
2022-09-09T17:10:40.643Z,16.12
2022-09-09T17:13:06.882Z,16.14
2022-09-09T17:15:33.148Z,16.02
2022-09-09T17:17:59.376Z,16.10
2022-09-09T17:20:25.600Z,16.10
2022-09-09T17:22:51.820Z,16.14
2022-09-09T17:25:18.045Z,16.20
2022-09-09T17:27:44.266Z,16.28
2022-09-09T17:30:10.706Z,16.30
2022-09-09T17:32:36.923Z,16.43
2022-09-09T17:35:03.240Z,16.61
2022-09-09T17:37:29.453Z,16.66
2022-09-09T17:39:55.707Z,16.73
2022-09-09T17:42:21.984Z,16.79
2022-09-09T17:44:48.185Z,16.80
2022-09-09T17:47:14.414Z,16.82
2022-09-09T17:49:40.618Z,16.73
2022-09-09T17:52:06.834Z,16.76
2022-09-09T17:54:33.030Z,16.73
2022-09-09T17:56:59.244Z,16.74
2022-09-09T17:59:25.437Z,16.43
2022-09-09T18:01:51.723Z,16.17
2022-09-09T18:04:17.990Z,16.28
2022-09-09T18:06:45.115Z,16.40
2022-09-09T18:09:12.269Z,16.25
2022-09-09T18:11:39.503Z,16.29
2022-09-09T18:14:05.718Z,16.41
2022-09-09T18:16:32.313Z,16.20
2022-09-09T18:18:58.542Z,16.35
2022-09-09T18:21:24.778Z,16.40
2022-09-09T18:23:51.044Z,16.29
2022-09-09T18:26:24.068Z,16.39
2022-09-09T18:28:50.961Z,16.46
2022-09-09T18:31:17.558Z,16.52
2022-09-09T18:33:44.274Z,16.50
2022-09-09T18:36:14.411Z,16.49
2022-09-09T18:38:40.797Z,16.47
2022-09-09T18:41:13.226Z,16.25
2022-09-09T18:43:39.429Z,16.25
2022-09-09T18:46:05.657Z,16.32
2022-09-09T18:48:35.027Z,16.35
2022-09-09T18:51:02.364Z,16.36
2022-09-09T18:53:28.570Z,16.20
2022-09-09T18:55:58.694Z,16.27
2022-09-09T18:58:24.911Z,16.27
2022-09-09T19:00:51.169Z,16.17
2022-09-09T19:03:17.398Z,16.24
2022-09-09T19:05:43.603Z,16.13
2022-09-09T19:08:09.847Z,16.14
2022-09-09T19:10:36.562Z,16.14
2022-09-09T19:13:02.855Z,16.16
2022-09-09T19:15:29.130Z,16.18
2022-09-09T19:17:55.374Z,16.17
2022-09-09T19:20:21.597Z,16.17
2022-09-09T19:22:47.804Z,16.16
2022-09-09T19:25:13.998Z,16.05
2022-09-09T19:27:40.224Z,16.06
2022-09-09T19:30:06.730Z,16.06
2022-09-09T19:35:19.100Z,15.92
2022-09-09T19:37:45.297Z,15.74
2022-09-09T19:40:11.586Z,15.81
2022-09-09T19:42:37.854Z,15.85
2022-09-09T19:45:04.134Z,15.73
2022-09-09T19:47:30.342Z,15.54
2022-09-09T19:49:56.538Z,15.63
2022-09-09T19:52:22.745Z,15.69
2022-09-09T19:54:48.988Z,15.63
2022-09-09T19:57:15.193Z,15.71
2022-09-09T19:59:41.381Z,15.78
2022-09-09T20:02:08.598Z,15.81
2022-09-09T20:04:34.844Z,15.79
2022-09-09T20:07:01.044Z,15.77
2022-09-09T20:09:27.254Z,15.60
2022-09-09T20:11:53.470Z,15.42
2022-09-09T20:14:19.670Z,15.48
2022-09-09T20:16:45.892Z,15.56
2022-09-09T20:19:12.248Z,15.63
2022-09-09T20:21:40.389Z,15.64
2022-09-09T20:24:09.986Z,15.48
2022-09-09T20:26:36.188Z,15.46
2022-09-09T20:29:02.433Z,15.51
2022-09-09T20:31:29.232Z,15.59
2022-09-09T20:33:55.975Z,15.58
2022-09-09T20:36:29.902Z,15.52
2022-09-09T20:38:56.746Z,15.36
2022-09-09T20:41:22.994Z,15.38
2022-09-09T20:43:49.492Z,15.20
2022-09-09T20:46:16.449Z,15.30
2022-09-09T20:48:42.673Z,15.15
2022-09-09T20:51:08.930Z,15.25
2022-09-09T20:53:35.155Z,15.11
2022-09-09T20:56:01.804Z,15.11
2022-09-09T20:58:32.879Z,15.05
2022-09-09T21:00:59.659Z,15.06
2022-09-09T21:03:26.914Z,15.05
2022-09-09T21:05:53.115Z,15.12
2022-09-09T21:08:19.337Z,15.24
2022-09-09T21:10:45.542Z,15.25
2022-09-09T21:13:11.738Z,15.27
2022-09-09T21:15:37.943Z,15.07
2022-09-09T21:18:04.157Z,14.92
2022-09-09T21:20:30.367Z,15.04
2022-09-09T21:22:56.570Z,15.09
2022-09-09T21:25:22.785Z,15.12
2022-09-09T21:27:48.993Z,15.20
2022-09-09T21:30:15.238Z,15.22
2022-09-09T21:32:41.436Z,15.18
2022-09-09T21:35:07.776Z,15.14
2022-09-09T21:37:33.984Z,15.19
2022-09-09T21:40:00.242Z,14.89
2022-09-09T21:42:26.531Z,14.78
2022-09-09T21:44:52.734Z,14.75
2022-09-09T21:47:18.939Z,14.67
2022-09-09T21:49:45.139Z,14.84
2022-09-09T21:52:11.342Z,14.81
2022-09-09T21:54:37.542Z,14.89
2022-09-09T21:57:03.741Z,14.96
2022-09-09T21:59:29.928Z,14.96
2022-09-09T22:01:56.244Z,14.89
2022-09-09T22:04:22.528Z,14.96
2022-09-09T22:06:48.722Z,15.03
2022-09-09T22:09:14.930Z,15.01
2022-09-09T22:11:41.118Z,15.03
2022-09-09T22:14:07.330Z,15.05
2022-09-09T22:16:33.527Z,15.04
2022-09-09T22:18:59.928Z,15.05
2022-09-09T22:21:26.515Z,15.03
2022-09-09T22:23:53.294Z,15.04
2022-09-09T22:26:19.494Z,15.09
2022-09-09T22:28:45.706Z,15.08
2022-09-09T22:31:11.915Z,15.03
2022-09-09T22:33:38.129Z,14.83
2022-09-09T22:36:04.391Z,14.79
2022-09-09T22:38:30.637Z,14.83
2022-09-09T22:40:56.851Z,14.92
2022-09-09T22:43:23.063Z,14.94
2022-09-09T22:45:49.346Z,14.81
2022-09-09T22:48:15.554Z,14.71
2022-09-09T22:50:42.518Z,14.67
2022-09-09T22:53:09.373Z,14.62
2022-09-09T22:55:35.556Z,14.61
2022-09-09T22:58:01.938Z,14.51
2022-09-09T23:00:28.133Z,14.46
2022-09-09T23:02:54.316Z,14.56
2022-09-09T23:05:20.538Z,14.61
2022-09-09T23:07:46.736Z,14.66
2022-09-09T23:10:12.940Z,14.73
2022-09-09T23:12:39.134Z,14.80
2022-09-09T23:15:05.493Z,14.83
2022-09-09T23:17:31.680Z,14.65
2022-09-09T23:19:57.884Z,14.62
2022-09-09T23:22:24.073Z,14.53
2022-09-09T23:24:50.307Z,14.56
2022-09-09T23:27:16.500Z,14.64
2022-09-09T23:29:42.696Z,14.62
2022-09-09T23:32:08.892Z,14.65
2022-09-09T23:34:35.088Z,14.64
2022-09-09T23:37:01.284Z,14.49
2022-09-09T23:39:27.640Z,14.49
2022-09-09T23:41:53.875Z,14.51
2022-09-09T23:44:20.085Z,14.46
2022-09-09T23:46:46.346Z,14.46
2022-09-09T23:49:12.565Z,14.52
2022-09-09T23:51:38.760Z,14.55
2022-09-09T23:54:05.235Z,14.58
2022-09-09T23:56:35.391Z,14.50
2022-09-09T23:59:01.601Z,14.57
